This is the latest recevied weather packets stored in our database for station/object N1TKS. If no packets are shown the sender has not sent any weather packets the latest 10 day(s).
| Time | Temp. | Humidity | Pressure | Rain* | Wind** | Luminosity | Snow |
|---|---|---|---|---|---|---|---|
| 1788139512 | 74° F | 85% | 764.3 mmHg | 0.02 in | - | - | - |
| 1788139212 | 74° F | 85% | 764.3 mmHg | 0.01 in | - | - | - |
| 1788139142 | 75° F | 84% | 764.2 mmHg | 0.01 in | - | - | - |
| 1788139134 | 75° F | 84% | 764.2 mmHg | 0.01 in | - | - | - |
| 1788139128 | 75° F | 84% | 764.2 mmHg | 0.01 in | - | - | - |
| 1788138914 | 75° F | 85% | 764.3 mmHg | 0.01 in | - | - | - |
| 1788138613 | 75° F | 85% | 764.2 mmHg | 0.01 in | - | - | - |
| 1788138314 | 75° F | 85% | 764.2 mmHg | 0.01 in | - | - | - |
| 1788138013 | 75° F | 84% | 764.2 mmHg | 0.01 in | - | - | - |
| 1788137713 | 75° F | 84% | 764.2 mmHg | 0.01 in | - | - | - |
| 1788137412 | 75° F | 84% | 764.2 mmHg | 0.01 in | - | - | - |
| 1788137202 | 77° F | 80% | 763.9 mmHg | 0 in | - | - | - |
| 1788137113 | 76° F | 83% | 764.2 mmHg | 0 in | - | - | - |
| 1788136813 | 76° F | 83% | 764.1 mmHg | 0 in | - | - | - |
| 1788136213 | 77° F | 82% | 764 mmHg | 0 in | - | - | - |
| 1788135612 | 77° F | 80% | 763.9 mmHg | 0 in | - | - | - |
| 1788135313 | 77° F | 80% | 763.9 mmHg | 0 in | - | - | - |
| 1788135294 | 78° F | 79% | 763.6 mmHg | 0 in | - | - | - |
| 1788135290 | 78° F | 78% | 763.6 mmHg | 0 in | - | - | - |
| 1788135284 | 78° F | 78% | 763.6 mmHg | 0 in | - | - | - |
| 1788135013 | 77° F | 79% | 763.8 mmHg | 0 in | - | - | - |
| 1788134712 | 77° F | 79% | 763.7 mmHg | 0 in | - | - | - |
| 1788134414 | 77° F | 79% | 763.7 mmHg | 0 in | - | - | - |
| 1788134112 | 78° F | 79% | 763.6 mmHg | 0 in | - | - | - |
| 1788133814 | 78° F | 78% | 763.6 mmHg | 0 in | - | - | - |
* Rain latest hour (hover to see other rain measurements)
** Current wind speed in m/s (hover to see current wind gust speed)